Terminal Aerodrome Forecast
Issued by NWS King Salmon, AK

Home | Current Version | Previous Version | Text Only | Print | Product List | Glossary On
Versions: 1 2 3 4 5 6 7 8 9 10 11 12 13 14 15 16 17 18 19 20 21 22 23 24 25 26 27 28 29 30
000
FTAK31 PAFC 181447 AAA
TAFAKN
TAF AMD
PAKN 181447Z 1815/1912 17010KT P6SM -RA OVC006
      TEMPO 1816/1820 P6SM SCT006 SCT050
     FM182100 19010KT P6SM -RA SCT015 BKN050
     FM190000 20013KT P6SM BKN050
     FM191000 18010KT P6SM OVC005=

USA.gov is the U.S. government's official web portal to all federal, state and local government web resources and services.